createdAt,value
2019-02-24T00:01:37.751Z,15.13
2019-02-24T00:04:07.158Z,18.92
2019-02-24T00:06:36.537Z,16.45
2019-02-24T00:09:06.056Z,12.85
2019-02-24T00:11:35.765Z,10.53
2019-02-24T00:14:05.165Z,11.15
2019-02-24T00:16:34.465Z,12.00
2019-02-24T00:19:03.923Z,11.93
2019-02-24T00:21:33.187Z,21.00
2019-02-24T00:24:02.432Z,15.48
2019-02-24T00:26:31.762Z,9.98
2019-02-24T00:29:01.283Z,13.30
2019-02-24T00:31:30.675Z,10.90
2019-02-24T00:33:59.879Z,10.38
2019-02-24T00:36:29.174Z,9.25
2019-02-24T00:38:58.575Z,11.03
2019-02-24T00:41:27.869Z,10.95
2019-02-24T00:43:57.284Z,9.75
2019-02-24T00:46:26.690Z,10.48
2019-02-24T00:48:56.081Z,13.13
2019-02-24T00:51:25.498Z,11.95
2019-02-24T00:53:54.882Z,11.43
2019-02-24T00:56:24.184Z,11.97
2019-02-24T00:58:53.592Z,11.97
2019-02-24T01:01:22.799Z,9.95
2019-02-24T01:03:52.077Z,13.08
2019-02-24T01:06:21.272Z,12.28
2019-02-24T01:08:50.591Z,16.25
2019-02-24T01:11:19.996Z,10.38
2019-02-24T01:13:49.391Z,8.70
2019-02-24T01:16:18.599Z,10.10
2019-02-24T01:18:47.829Z,8.83
2019-02-24T01:21:16.974Z,11.48
2019-02-24T01:23:47.280Z,10.93
2019-02-24T01:26:16.454Z,12.58
2019-02-24T01:28:45.594Z,9.95
2019-02-24T01:31:14.738Z,11.53
2019-02-24T01:33:43.878Z,9.68
2019-02-24T01:36:12.998Z,10.38
2019-02-24T01:38:42.293Z,10.65
2019-02-24T01:41:11.406Z,10.72
2019-02-24T01:43:40.570Z,8.23
2019-02-24T01:46:09.770Z,10.00
2019-02-24T01:48:38.927Z,11.03
2019-02-24T01:51:08.180Z,9.25
2019-02-24T01:53:37.375Z,11.70
2019-02-24T01:56:06.535Z,9.45
2019-02-24T01:58:35.978Z,8.60
2019-02-24T02:01:05.199Z,10.48
2019-02-24T02:03:34.371Z,8.95
2019-02-24T02:06:03.594Z,8.33
2019-02-24T02:08:32.809Z,11.93
2019-02-24T02:11:03.078Z,9.85
2019-02-24T02:13:32.291Z,10.28
2019-02-24T02:16:01.483Z,8.10
2019-02-24T02:18:30.568Z,7.83
2019-02-24T02:20:59.773Z,9.70
2019-02-24T02:23:28.983Z,8.95
2019-02-24T02:25:58.126Z,8.00
2019-02-24T02:28:27.238Z,8.40
2019-02-24T02:30:56.397Z,11.00
2019-02-24T02:33:25.542Z,7.47
2019-02-24T02:35:54.738Z,6.92
2019-02-24T02:38:23.946Z,7.00
2019-02-24T02:40:53.163Z,11.70
2019-02-24T02:43:22.358Z,8.28
2019-02-24T02:45:51.537Z,6.95
2019-02-24T02:48:21.782Z,9.58
2019-02-24T02:50:50.957Z,10.25
2019-02-24T02:53:20.099Z,7.83
2019-02-24T02:55:49.318Z,7.85
2019-02-24T02:58:18.567Z,7.55
2019-02-24T03:00:47.738Z,8.13
2019-02-24T03:03:17.053Z,7.42
2019-02-24T03:06:03.252Z,8.63
2019-02-24T03:08:49.126Z,5.90
2019-02-24T03:11:18.338Z,7.15
2019-02-24T03:13:47.456Z,7.15
2019-02-24T03:16:18.254Z,8.58
2019-02-24T03:18:47.484Z,7.33
2019-02-24T03:21:16.690Z,8.93
2019-02-24T03:23:45.877Z,6.42
2019-02-24T03:26:15.069Z,7.60
2019-02-24T03:28:44.149Z,5.70
2019-02-24T03:31:13.475Z,7.50
2019-02-24T03:33:44.732Z,6.47
2019-02-24T03:36:13.355Z,6.83
2019-02-24T03:38:42.582Z,10.78
2019-02-24T03:41:11.795Z,9.35
2019-02-24T03:43:40.990Z,7.75
2019-02-24T03:46:10.170Z,9.05
2019-02-24T03:48:39.381Z,9.50
2019-02-24T03:51:08.566Z,7.55
2019-02-24T03:53:37.778Z,8.00
2019-02-24T03:56:06.971Z,6.72
2019-02-24T03:58:36.278Z,7.37
2019-02-24T04:01:05.480Z,6.97
2019-02-24T04:03:34.673Z,7.80
2019-02-24T04:06:03.866Z,6.72
2019-02-24T04:08:32.979Z,6.65
2019-02-24T04:11:02.166Z,6.62
2019-02-24T04:13:31.331Z,7.90
2019-02-24T04:16:00.487Z,5.17
2019-02-24T04:18:31.462Z,5.17
2019-02-24T04:21:00.596Z,6.47
2019-02-24T04:23:29.773Z,5.83
2019-02-24T04:25:58.970Z,6.62
2019-02-24T04:28:28.124Z,4.80
2019-02-24T04:30:58.390Z,8.28
2019-02-24T04:33:27.528Z,6.08
2019-02-24T04:35:56.650Z,6.58
2019-02-24T04:38:25.810Z,5.67
2019-02-24T04:40:54.955Z,5.78
2019-02-24T04:43:24.051Z,5.53
2019-02-24T04:45:53.170Z,6.95
2019-02-24T04:48:22.382Z,5.35
2019-02-24T04:50:51.460Z,6.15
2019-02-24T04:53:20.676Z,4.40
2019-02-24T04:55:49.835Z,5.37
2019-02-24T04:58:19.002Z,5.65
2019-02-24T05:00:48.168Z,4.53
2019-02-24T05:03:19.308Z,3.42
2019-02-24T05:05:48.201Z,3.75
2019-02-24T05:08:17.382Z,4.83
2019-02-24T05:10:46.578Z,4.92
2019-02-24T05:13:15.723Z,4.55
2019-02-24T05:15:44.879Z,3.50
2019-02-24T05:18:14.191Z,6.65
2019-02-24T05:20:43.247Z,4.60
2019-02-24T05:23:12.478Z,9.45
2019-02-24T05:25:43.650Z,4.60
2019-02-24T05:28:12.441Z,8.00
2019-02-24T05:30:41.697Z,5.90
2019-02-24T05:33:10.910Z,5.58
2019-02-24T05:35:40.128Z,4.22
2019-02-24T05:38:09.290Z,4.97
2019-02-24T05:40:38.444Z,4.97
2019-02-24T05:43:07.532Z,3.92
2019-02-24T05:45:36.698Z,4.22
2019-02-24T05:48:05.843Z,4.83
2019-02-24T05:50:35.011Z,4.15
2019-02-24T05:53:04.147Z,4.03
2019-02-24T05:55:33.301Z,5.05
2019-02-24T05:58:02.475Z,4.20
2019-02-24T06:00:34.107Z,4.47
2019-02-24T06:03:02.493Z,4.03
2019-02-24T06:05:31.643Z,4.95
2019-02-24T06:08:01.901Z,5.08
2019-02-24T06:10:31.193Z,4.22
2019-02-24T06:13:00.350Z,3.75
2019-02-24T06:15:29.558Z,3.67
2019-02-24T06:17:58.978Z,4.53
2019-02-24T06:20:28.301Z,3.98
2019-02-24T06:22:57.429Z,4.42
2019-02-24T06:25:26.583Z,4.83
2019-02-24T06:27:55.732Z,3.25
2019-02-24T06:30:24.939Z,5.30
2019-02-24T06:32:54.178Z,3.72
2019-02-24T06:35:23.338Z,4.75
2019-02-24T06:37:52.523Z,3.55
2019-02-24T06:40:21.676Z,3.25
2019-02-24T06:42:50.836Z,5.25
2019-02-24T06:45:19.951Z,5.60
2019-02-24T06:47:49.066Z,3.00
2019-02-24T06:50:18.183Z,3.30
2019-02-24T06:52:47.281Z,4.30
2019-02-24T06:55:16.423Z,3.50
2019-02-24T06:57:45.635Z,4.47
2019-02-24T07:00:14.813Z,4.97
2019-02-24T07:02:43.887Z,3.75
2019-02-24T07:05:13.040Z,3.70
2019-02-24T07:07:42.230Z,5.08
2019-02-24T07:10:11.348Z,5.15
2019-02-24T07:12:40.493Z,5.85
2019-02-24T07:15:09.853Z,4.97
2019-02-24T07:17:39.142Z,4.97
2019-02-24T07:20:08.334Z,6.37
2019-02-24T07:22:37.548Z,4.95
2019-02-24T07:25:06.772Z,4.03
2019-02-24T07:27:36.063Z,9.18
2019-02-24T07:30:08.753Z,6.40
2019-02-24T07:32:37.945Z,5.15
2019-02-24T07:35:07.122Z,5.70
2019-02-24T07:37:36.316Z,4.75
2019-02-24T07:40:05.507Z,5.50
2019-02-24T07:42:35.708Z,4.83
2019-02-24T07:45:05.928Z,5.47
2019-02-24T07:47:35.156Z,4.65
2019-02-24T07:50:05.768Z,4.08
2019-02-24T07:52:34.980Z,5.58
2019-02-24T07:55:04.694Z,4.92
2019-02-24T07:57:33.846Z,4.58
2019-02-24T08:00:02.981Z,5.85
2019-02-24T08:02:32.295Z,7.47
2019-02-24T08:05:01.474Z,9.35
2019-02-24T08:07:30.706Z,5.28
2019-02-24T08:09:59.814Z,4.60
2019-02-24T08:12:29.061Z,4.83
2019-02-24T08:14:58.199Z,8.08
2019-02-24T08:17:27.365Z,6.03
2019-02-24T08:19:56.564Z,5.10
2019-02-24T08:22:25.801Z,5.90
2019-02-24T08:24:55.027Z,4.70
2019-02-24T08:27:24.225Z,5.87
2019-02-24T08:29:53.431Z,6.97
2019-02-24T08:32:22.627Z,7.22
2019-02-24T08:34:53.096Z,6.42
2019-02-24T08:37:22.483Z,5.87
2019-02-24T08:39:51.792Z,7.35
2019-02-24T08:42:21.047Z,5.28
2019-02-24T08:44:50.387Z,6.42
2019-02-24T08:47:19.745Z,5.92
2019-02-24T08:49:48.964Z,6.70
2019-02-24T08:52:18.122Z,4.72
2019-02-24T08:54:47.333Z,6.80
2019-02-24T08:57:16.501Z,11.33
2019-02-24T08:59:45.754Z,12.80
2019-02-24T09:02:14.959Z,14.87
2019-02-24T09:04:44.170Z,13.20
2019-02-24T09:07:13.342Z,7.60
2019-02-24T09:09:42.527Z,8.73
2019-02-24T09:12:11.775Z,6.90
2019-02-24T09:14:41.180Z,9.68
2019-02-24T09:17:10.479Z,6.35
2019-02-24T09:19:39.809Z,10.28
2019-02-24T09:22:09.082Z,12.55
2019-02-24T09:24:38.398Z,11.83
2019-02-24T09:27:07.738Z,20.68
2019-02-24T09:29:37.051Z,14.73
2019-02-24T09:32:06.496Z,13.93
2019-02-24T09:34:35.870Z,10.72
2019-02-24T09:37:05.174Z,10.00
2019-02-24T09:39:34.393Z,32.23
2019-02-24T09:42:03.698Z,49.50
2019-02-24T09:44:34.763Z,36.75
2019-02-24T09:47:04.841Z,21.33
2019-02-24T09:49:34.428Z,11.97
2019-02-24T09:52:04.235Z,8.60
2019-02-24T09:54:34.672Z,7.33
2019-02-24T09:57:03.989Z,5.55
2019-02-24T09:59:33.230Z,8.88
2019-02-24T10:02:02.429Z,9.08
2019-02-24T10:04:31.587Z,7.42
2019-02-24T10:07:00.935Z,5.25
2019-02-24T10:09:30.122Z,4.30
2019-02-24T10:11:59.445Z,4.30
2019-02-24T10:14:29.756Z,5.92
2019-02-24T10:16:58.919Z,29.37
2019-02-24T10:19:31.138Z,17.95
2019-02-24T10:22:00.078Z,8.23
2019-02-24T10:24:29.443Z,5.90
2019-02-24T10:26:58.768Z,5.42
2019-02-24T10:29:27.907Z,5.10
2019-02-24T10:31:57.033Z,4.30
2019-02-24T10:34:26.305Z,5.97
2019-02-24T10:36:55.479Z,4.78
2019-02-24T10:39:29.725Z,3.52
2019-02-24T10:41:55.470Z,4.95
2019-02-24T10:44:25.728Z,4.83
2019-02-24T10:46:55.097Z,5.78
2019-02-24T10:49:24.318Z,3.70
2019-02-24T10:51:53.533Z,3.95
2019-02-24T10:54:22.765Z,5.50
2019-02-24T10:56:53.131Z,4.85
2019-02-24T10:59:22.323Z,5.58
2019-02-24T11:01:51.605Z,6.60
2019-02-24T11:04:20.807Z,6.65
2019-02-24T11:06:50.074Z,6.33
2019-02-24T11:09:19.188Z,7.40
2019-02-24T11:11:48.461Z,4.95
2019-02-24T11:14:17.754Z,5.80
2019-02-24T11:16:46.962Z,5.03
2019-02-24T11:19:16.098Z,6.30
2019-02-24T11:21:45.417Z,3.33
2019-02-24T11:24:14.598Z,3.05
2019-02-24T11:26:43.881Z,3.52
2019-02-24T11:29:13.520Z,2.90
2019-02-24T11:31:42.708Z,4.35
2019-02-24T11:34:13.017Z,4.10
2019-02-24T11:36:42.320Z,3.90
2019-02-24T11:39:11.642Z,3.70
2019-02-24T11:41:41.143Z,4.10
2019-02-24T11:44:10.292Z,3.72
2019-02-24T11:46:41.503Z,4.40
2019-02-24T11:49:11.000Z,5.28
2019-02-24T11:51:40.277Z,10.23
2019-02-24T11:54:09.476Z,16.57
2019-02-24T11:56:38.666Z,9.70
2019-02-24T11:59:08.912Z,7.12
2019-02-24T12:01:47.096Z,6.92
2019-02-24T12:04:08.864Z,7.28
2019-02-24T12:06:38.041Z,5.92
2019-02-24T12:09:08.360Z,10.48
2019-02-24T12:11:37.708Z,12.33
2019-02-24T12:14:08.141Z,9.50
2019-02-24T12:16:37.352Z,7.78
2019-02-24T12:19:06.494Z,8.08
2019-02-24T12:21:35.716Z,7.08
2019-02-24T12:24:04.903Z,6.85
2019-02-24T12:26:35.186Z,7.30
2019-02-24T12:29:04.432Z,7.47
2019-02-24T12:31:33.610Z,9.73
2019-02-24T12:34:02.838Z,7.55
2019-02-24T12:36:32.145Z,5.62
2019-02-24T12:39:01.485Z,6.22
2019-02-24T12:41:32.226Z,6.05
2019-02-24T12:44:01.563Z,7.08
2019-02-24T12:46:30.786Z,6.15
2019-02-24T12:49:00.000Z,4.97
2019-02-24T12:51:29.205Z,5.00
2019-02-24T12:53:58.379Z,5.15
2019-02-24T12:56:27.535Z,4.28
2019-02-24T12:58:56.626Z,6.25
2019-02-24T13:01:25.767Z,6.67
2019-02-24T13:03:54.976Z,5.42
2019-02-24T13:06:24.213Z,7.33
2019-02-24T13:08:53.407Z,5.15
2019-02-24T13:11:23.888Z,4.60
2019-02-24T13:13:53.240Z,6.08
2019-02-24T13:16:22.410Z,6.95
2019-02-24T13:18:51.675Z,4.97
2019-02-24T13:21:20.814Z,4.97
2019-02-24T13:23:50.028Z,6.40
2019-02-24T13:26:20.350Z,4.67
2019-02-24T13:28:50.743Z,6.15
2019-02-24T13:31:20.008Z,5.20
2019-02-24T13:33:49.138Z,4.17
2019-02-24T13:36:18.291Z,5.42
2019-02-24T13:38:47.445Z,4.37
2019-02-24T13:41:16.659Z,3.47
2019-02-24T13:43:45.867Z,4.22
2019-02-24T13:46:15.112Z,3.12
2019-02-24T13:48:44.345Z,3.08
2019-02-24T13:51:13.828Z,3.83
2019-02-24T13:53:43.307Z,3.00
2019-02-24T13:56:12.599Z,3.75
2019-02-24T13:58:41.850Z,3.47
2019-02-24T14:01:11.029Z,2.80
2019-02-24T14:03:42.016Z,2.20
2019-02-24T14:06:11.411Z,2.60
2019-02-24T14:08:40.697Z,2.12
2019-02-24T14:11:09.931Z,2.77
2019-02-24T14:13:39.270Z,3.27
2019-02-24T14:16:08.574Z,3.60
2019-02-24T14:18:37.890Z,3.08
2019-02-24T14:21:08.542Z,3.45
2019-02-24T14:23:38.171Z,3.67
2019-02-24T14:26:07.476Z,3.92
2019-02-24T14:28:36.678Z,6.10
2019-02-24T14:31:06.126Z,4.08
2019-02-24T14:33:35.772Z,7.22
2019-02-24T14:36:05.062Z,4.72
2019-02-24T14:38:34.396Z,4.00
2019-02-24T14:41:03.634Z,7.03
2019-02-24T14:43:33.978Z,3.77
2019-02-24T14:46:03.754Z,4.08
2019-02-24T14:48:32.970Z,4.53
2019-02-24T14:51:02.141Z,3.10
2019-02-24T14:53:31.371Z,3.25
2019-02-24T14:56:00.516Z,9.40
2019-02-24T14:58:29.790Z,3.58
2019-02-24T15:01:00.626Z,6.12
2019-02-24T15:03:30.027Z,5.67
2019-02-24T15:05:59.204Z,4.33
2019-02-24T15:08:28.315Z,4.67
2019-02-24T15:10:57.598Z,4.72
2019-02-24T15:13:26.665Z,2.77
2019-02-24T15:15:55.887Z,3.60
2019-02-24T15:18:25.107Z,3.83
2019-02-24T15:20:54.390Z,4.83
2019-02-24T15:23:23.614Z,4.72
2019-02-24T15:25:52.844Z,6.67
2019-02-24T15:28:22.079Z,4.78
2019-02-24T15:30:51.388Z,5.42
2019-02-24T15:33:20.659Z,6.45
2019-02-24T15:35:49.850Z,5.30
2019-02-24T15:38:19.245Z,5.20
2019-02-24T15:40:49.069Z,4.58
2019-02-24T15:43:18.245Z,3.30
2019-02-24T15:45:47.421Z,4.53
2019-02-24T15:48:16.620Z,3.83
2019-02-24T15:50:45.882Z,5.28
2019-02-24T15:53:15.096Z,4.15
2019-02-24T15:55:44.273Z,4.28
2019-02-24T15:58:13.529Z,4.47
2019-02-24T16:00:42.727Z,5.33
2019-02-24T16:03:11.919Z,5.75
2019-02-24T16:05:41.172Z,4.95
2019-02-24T16:08:10.379Z,4.50
2019-02-24T16:10:39.542Z,4.87
2019-02-24T16:13:16.685Z,5.67
2019-02-24T16:15:39.520Z,6.60
2019-02-24T16:18:08.672Z,6.40
2019-02-24T16:20:38.702Z,4.90
2019-02-24T16:23:07.939Z,4.62
2019-02-24T16:25:39.629Z,5.37
2019-02-24T16:28:09.356Z,4.92
2019-02-24T16:30:41.396Z,6.05
2019-02-24T16:33:12.135Z,6.03
2019-02-24T16:35:42.521Z,4.40
2019-02-24T16:38:12.040Z,5.45
2019-02-24T16:40:41.484Z,4.95
2019-02-24T16:43:10.702Z,5.83
2019-02-24T16:45:39.986Z,5.37
2019-02-24T16:48:10.287Z,7.28
2019-02-24T16:50:39.542Z,6.80
2019-02-24T16:53:08.850Z,6.08
2019-02-24T16:55:38.133Z,9.80
2019-02-24T16:58:07.446Z,7.53
2019-02-24T17:00:36.751Z,9.95
2019-02-24T17:03:05.955Z,9.28
2019-02-24T17:05:35.738Z,8.00
2019-02-24T17:08:05.150Z,9.13
2019-02-24T17:10:34.369Z,7.87
2019-02-24T17:13:03.712Z,7.83
2019-02-24T17:15:33.029Z,8.55
2019-02-24T17:18:02.277Z,6.90
2019-02-24T17:20:32.476Z,8.30
2019-02-24T17:23:02.068Z,8.20
2019-02-24T17:25:31.392Z,7.97
2019-02-24T17:28:03.444Z,7.20
2019-02-24T17:30:34.091Z,9.28
2019-02-24T17:33:06.555Z,7.62
2019-02-24T17:35:40.812Z,10.82
2019-02-24T17:38:12.393Z,8.73
2019-02-24T17:40:45.629Z,8.50
2019-02-24T17:43:15.357Z,8.93
2019-02-24T17:45:44.983Z,7.55
2019-02-24T17:48:15.468Z,9.65
2019-02-24T17:50:49.584Z,17.12
2019-02-24T17:53:22.371Z,14.53
2019-02-24T17:55:51.978Z,13.80
2019-02-24T17:58:21.480Z,12.20
2019-02-24T18:00:59.481Z,16.42
2019-02-24T18:03:28.885Z,14.43
2019-02-24T18:05:58.384Z,12.37
2019-02-24T18:08:28.422Z,11.15
2019-02-24T18:10:57.693Z,11.53
2019-02-24T18:13:26.899Z,13.43
2019-02-24T18:15:56.202Z,13.48
2019-02-24T18:18:27.329Z,14.87
2019-02-24T18:20:56.619Z,19.55
2019-02-24T18:23:25.854Z,17.62
2019-02-24T18:25:55.259Z,14.33
2019-02-24T18:28:25.002Z,17.40
2019-02-24T18:30:54.404Z,13.03
2019-02-24T18:33:23.748Z,13.90
2019-02-24T18:35:52.905Z,15.83
2019-02-24T18:38:22.876Z,17.30
2019-02-24T18:40:51.993Z,21.62
2019-02-24T18:43:21.215Z,16.52
2019-02-24T18:45:50.668Z,17.73
2019-02-24T18:48:19.809Z,14.68
2019-02-24T18:50:49.150Z,13.50
2019-02-24T18:53:18.457Z,10.48
2019-02-24T18:55:47.726Z,16.17
2019-02-24T18:58:18.073Z,16.90
2019-02-24T19:00:47.580Z,18.92
2019-02-24T19:03:16.821Z,23.00
2019-02-24T19:05:46.141Z,16.27
2019-02-24T19:08:15.410Z,16.25
2019-02-24T19:10:44.726Z,14.90
2019-02-24T19:13:13.951Z,14.50
2019-02-24T19:15:43.122Z,11.63
2019-02-24T19:18:12.384Z,13.53
2019-02-24T19:20:41.691Z,10.35
2019-02-24T19:23:11.892Z,14.10
2019-02-24T19:25:41.150Z,13.83
2019-02-24T19:28:10.446Z,14.23
2019-02-24T19:30:39.662Z,16.15
2019-02-24T19:33:08.981Z,13.43
2019-02-24T19:35:38.483Z,12.18
2019-02-24T19:38:07.768Z,15.50
2019-02-24T19:40:36.965Z,14.15
2019-02-24T19:43:06.226Z,13.48
2019-02-24T19:45:35.485Z,13.38
2019-02-24T19:48:04.799Z,16.75
2019-02-24T19:50:33.973Z,16.77
2019-02-24T19:53:03.327Z,16.62
2019-02-24T19:55:32.531Z,45.43
2019-02-24T19:58:01.690Z,30.35
2019-02-24T20:00:30.985Z,23.22
2019-02-24T20:03:00.433Z,18.15
2019-02-24T20:05:29.915Z,30.23
2019-02-24T20:07:59.122Z,20.52
2019-02-24T20:10:29.433Z,17.57
2019-02-24T20:12:58.837Z,18.15
2019-02-24T20:15:28.122Z,17.15
2019-02-24T20:17:57.433Z,38.55
2019-02-24T20:20:26.737Z,34.25
2019-02-24T20:22:55.999Z,23.30
2019-02-24T20:25:25.263Z,23.00
2019-02-24T20:27:54.571Z,20.62
2019-02-24T20:30:24.925Z,22.10
2019-02-24T20:32:54.159Z,15.20
2019-02-24T20:35:23.558Z,16.27
2019-02-24T20:37:52.961Z,19.07
2019-02-24T20:40:22.198Z,16.62
2019-02-24T20:42:51.517Z,14.05
2019-02-24T20:45:21.174Z,10.55
2019-02-24T20:47:50.481Z,8.93
2019-02-24T20:50:20.901Z,12.53
2019-02-24T20:52:50.303Z,10.60
2019-02-24T20:55:19.705Z,11.85
2019-02-24T20:57:49.005Z,10.82
2019-02-24T21:00:19.933Z,11.18
2019-02-24T21:02:49.240Z,11.00
2019-02-24T21:05:18.529Z,10.28
2019-02-24T21:07:47.829Z,12.45
2019-02-24T21:10:17.116Z,9.68
2019-02-24T21:12:46.649Z,11.45
2019-02-24T21:15:16.754Z,8.38
2019-02-24T21:17:46.061Z,9.58
2019-02-24T21:20:16.710Z,10.38
2019-02-24T21:22:45.926Z,9.33
2019-02-24T21:25:15.189Z,8.98
2019-02-24T21:27:44.493Z,10.03
2019-02-24T21:30:15.001Z,9.18
2019-02-24T21:32:46.034Z,8.65
2019-02-24T21:35:17.207Z,10.98
2019-02-24T21:37:46.511Z,10.70
2019-02-24T21:40:17.151Z,11.22
2019-02-24T21:42:46.458Z,8.70
2019-02-24T21:45:22.595Z,8.98
2019-02-24T21:47:51.902Z,11.55
2019-02-24T21:50:21.187Z,11.15
2019-02-24T21:52:50.592Z,12.40
2019-02-24T21:55:19.827Z,11.25
2019-02-24T21:57:49.089Z,15.03
2019-02-24T22:00:19.743Z,9.55
2019-02-24T22:02:50.849Z,9.18
2019-02-24T22:05:19.856Z,12.58
2019-02-24T22:07:49.147Z,8.85
2019-02-24T22:10:18.563Z,8.58
2019-02-24T22:12:47.763Z,9.30
2019-02-24T22:15:26.492Z,9.25
2019-02-24T22:17:55.770Z,8.43
2019-02-24T22:20:25.007Z,7.53
2019-02-24T22:22:54.202Z,10.35
2019-02-24T22:25:23.444Z,9.43
2019-02-24T22:27:52.670Z,7.87
2019-02-24T22:30:22.418Z,7.75
2019-02-24T22:32:51.609Z,11.57
2019-02-24T22:35:20.981Z,8.43
2019-02-24T22:37:50.175Z,8.28
2019-02-24T22:40:19.380Z,9.98
2019-02-24T22:42:48.795Z,10.58
2019-02-24T22:45:18.811Z,10.10
2019-02-24T22:47:48.110Z,8.10
2019-02-24T22:50:17.511Z,7.42
2019-02-24T22:52:46.773Z,6.58
2019-02-24T22:55:16.509Z,8.43
2019-02-24T22:57:45.797Z,6.92
2019-02-24T23:00:30.586Z,7.72
2019-02-24T23:03:01.627Z,7.08
2019-02-24T23:05:30.926Z,6.60
2019-02-24T23:08:00.217Z,7.83
2019-02-24T23:10:29.430Z,8.85
2019-02-24T23:12:58.666Z,9.43
2019-02-24T23:15:28.020Z,10.05
2019-02-24T23:17:57.237Z,8.03
2019-02-24T23:20:26.608Z,10.85
2019-02-24T23:22:56.028Z,10.40
2019-02-24T23:25:25.232Z,8.45
2019-02-24T23:27:54.628Z,9.33
2019-02-24T23:30:23.825Z,9.70
2019-02-24T23:32:53.102Z,8.03
2019-02-24T23:35:22.420Z,9.05
2019-02-24T23:37:51.705Z,7.35
2019-02-24T23:40:21.111Z,6.60
2019-02-24T23:42:50.420Z,10.88
2019-02-24T23:45:19.637Z,7.30
2019-02-24T23:47:48.879Z,6.78
2019-02-24T23:50:19.028Z,7.25
2019-02-24T23:52:48.330Z,8.50
2019-02-24T23:55:17.525Z,9.98
2019-02-24T23:57:46.742Z,6.87
